createdAt,value
2024-02-29T00:01:19.814Z,99597.09
2024-02-29T00:03:46.353Z,99595.91
2024-02-29T00:06:12.769Z,99598.69
2024-02-29T00:08:39.174Z,99592.38
2024-02-29T00:11:05.659Z,99596.28
2024-02-29T00:13:32.056Z,99589.94
2024-02-29T00:15:58.538Z,99589.94
2024-02-29T00:18:25.004Z,99590.78
2024-02-29T00:20:51.412Z,99591.91
2024-02-29T00:23:17.872Z,99597.81
2024-02-29T00:25:44.291Z,99593.09
2024-02-29T00:28:10.786Z,99588.72
2024-02-29T00:30:37.308Z,99590.66
2024-02-29T00:33:03.790Z,99596.19
2024-02-29T00:35:30.266Z,99594.59
2024-02-29T00:37:56.707Z,99600.09
2024-02-29T00:40:23.319Z,99598.16
2024-02-29T00:42:49.858Z,99598.94
2024-02-29T00:45:16.319Z,99598.94
2024-02-29T00:47:42.748Z,99593.44
2024-02-29T00:50:09.238Z,99595.38
2024-02-29T00:52:35.669Z,99591.47
2024-02-29T00:55:02.097Z,99591.47
2024-02-29T00:57:28.624Z,99586.78
2024-02-29T00:59:55.064Z,99582.06
2024-02-29T01:02:21.479Z,99585.59
2024-02-29T01:04:47.907Z,99582.06
2024-02-29T01:07:14.431Z,99586.41
2024-02-29T01:09:40.924Z,99580.88
2024-02-29T01:12:07.399Z,99581.25
2024-02-29T01:14:33.820Z,99574.91
2024-02-29T01:17:00.206Z,99569.41
2024-02-29T01:19:26.643Z,99568.59
2024-02-29T01:21:53.088Z,99556.00
2024-02-29T01:24:19.506Z,99559.53
2024-02-29T01:26:45.944Z,99567.81
2024-02-29T01:29:12.375Z,99567.03
2024-02-29T01:31:38.825Z,99565.44
2024-02-29T01:34:05.305Z,99564.25
2024-02-29T01:36:31.783Z,99567.81
2024-02-29T01:38:58.211Z,99566.22
2024-02-29T01:41:24.632Z,99562.31
2024-02-29T01:43:51.036Z,99574.13
2024-02-29T01:46:17.472Z,99578.84
2024-02-29T01:48:44.019Z,99574.13
2024-02-29T01:51:10.423Z,99561.97
2024-02-29T01:53:36.876Z,99561.97
2024-02-29T01:56:03.325Z,99551.72
2024-02-29T01:58:29.755Z,99549.75
2024-02-29T02:00:56.278Z,99552.53
2024-02-29T02:03:22.761Z,99558.03
2024-02-29T02:05:49.166Z,99549.75
2024-02-29T02:08:15.610Z,99556.88
2024-02-29T02:10:41.996Z,99548.19
2024-02-29T02:13:08.453Z,99546.22
2024-02-29T02:15:34.945Z,99544.59
2024-02-29T02:18:01.460Z,99542.66
2024-02-29T02:20:27.900Z,99534.38
2024-02-29T02:22:54.330Z,99535.53
2024-02-29T02:25:20.749Z,99538.28
2024-02-29T02:27:47.235Z,99537.16
2024-02-29T02:30:13.742Z,99530.81
2024-02-29T02:32:40.253Z,99537.16
2024-02-29T02:35:06.725Z,99539.91
2024-02-29T02:37:33.132Z,99533.56
2024-02-29T02:39:59.611Z,99529.66
2024-02-29T02:42:26.083Z,99535.19
2024-02-29T02:44:52.481Z,99530.47
2024-02-29T02:47:18.907Z,99526.53
2024-02-29T02:49:45.393Z,99532.06
2024-02-29T02:52:11.928Z,99534.81
2024-02-29T02:54:38.414Z,99532.06
2024-02-29T02:57:04.829Z,99526.53
2024-02-29T02:59:31.275Z,99528.50
2024-02-29T03:01:57.712Z,99530.00
2024-02-29T03:04:24.170Z,99533.22
2024-02-29T03:06:50.590Z,99530.47
2024-02-29T03:09:17.069Z,99525.28
2024-02-29T03:11:43.480Z,99519.78
2024-02-29T03:14:09.876Z,99523.69
2024-02-29T03:16:36.311Z,99498.94
2024-02-29T03:19:02.807Z,99521.31
2024-02-29T03:21:29.356Z,99526.47
2024-02-29T03:23:55.808Z,99522.91
2024-02-29T03:26:22.229Z,99524.50
2024-02-29T03:28:48.709Z,99521.31
2024-02-29T03:31:15.178Z,99518.19
2024-02-29T03:33:41.689Z,99521.75
2024-02-29T03:36:08.176Z,99520.16
2024-02-29T03:38:34.598Z,99518.19
2024-02-29T03:41:01.007Z,99511.88
2024-02-29T03:43:27.440Z,99518.97
2024-02-29T03:45:53.891Z,99515.09
2024-02-29T03:48:20.331Z,99511.50
2024-02-29T03:50:46.763Z,99517.03
2024-02-29T03:53:13.179Z,99517.41
2024-02-29T03:55:39.608Z,99510.28
2024-02-29T03:58:06.127Z,99511.88
2024-02-29T04:00:32.668Z,99507.53
2024-02-29T04:02:59.110Z,99500.41
2024-02-29T04:05:25.746Z,99503.16
2024-02-29T04:07:52.345Z,99507.88
2024-02-29T04:10:18.813Z,99499.59
2024-02-29T04:12:45.319Z,99490.53
2024-02-29T04:15:11.845Z,99493.31
2024-02-29T04:17:38.249Z,99485.03
2024-02-29T04:20:04.682Z,99482.28
2024-02-29T04:22:31.178Z,99480.31
2024-02-29T04:24:57.646Z,99481.09
2024-02-29T04:27:24.108Z,99472.84
2024-02-29T04:29:50.545Z,99481.09
2024-02-29T04:32:16.924Z,99483.06
2024-02-29T04:34:43.395Z,99477.94
2024-02-29T04:37:10.018Z,99477.56
2024-02-29T04:39:36.534Z,99472.41
2024-02-29T04:42:03.022Z,99475.19
2024-02-29T04:44:29.442Z,99477.94
2024-02-29T04:46:55.864Z,99472.41
2024-02-29T04:49:22.346Z,99472.75
2024-02-29T04:51:48.840Z,99472.75
2024-02-29T04:54:15.336Z,99471.19
2024-02-29T04:56:41.755Z,99473.94
2024-02-29T04:59:08.202Z,99466.81
2024-02-29T05:01:34.859Z,99473.13
2024-02-29T05:04:01.531Z,99474.72
2024-02-29T05:06:28.042Z,99470.38
2024-02-29T05:08:54.477Z,99460.50
2024-02-29T05:11:20.908Z,99466.81
2024-02-29T05:13:47.398Z,99465.94
2024-02-29T05:16:13.824Z,99462.25
2024-02-29T05:18:40.281Z,99461.63
2024-02-29T05:21:06.799Z,99451.94
2024-02-29T05:23:33.270Z,99452.91
2024-02-29T05:25:59.672Z,99463.28
2024-02-29T05:28:26.093Z,99468.72
2024-02-29T05:30:52.584Z,99466.56
2024-02-29T05:33:19.012Z,99470.72
2024-02-29T05:35:45.532Z,99474.44
2024-02-29T05:38:12.023Z,99470.66
2024-02-29T05:40:38.634Z,99479.91
2024-02-29T05:43:05.223Z,99471.13
2024-02-29T05:45:31.724Z,99476.25
2024-02-29T05:47:58.184Z,99470.34
2024-02-29T05:50:24.639Z,99465.06
2024-02-29T05:52:51.084Z,99471.72
2024-02-29T05:55:17.523Z,99469.72
2024-02-29T05:57:44.029Z,99473.81
2024-02-29T06:00:10.479Z,99463.81
2024-02-29T06:02:39.828Z,99477.88
2024-02-29T06:05:06.322Z,99465.34
2024-02-29T06:07:32.738Z,99458.31
2024-02-29T06:09:59.219Z,99457.44
2024-02-29T06:12:25.685Z,99462.13
2024-02-29T06:14:52.118Z,99471.50
2024-02-29T06:17:18.576Z,99468.34
2024-02-29T06:19:45.020Z,99459.91
2024-02-29T06:22:11.513Z,99465.28
2024-02-29T06:24:37.960Z,99461.94
2024-02-29T06:27:04.410Z,99463.72
2024-02-29T06:29:30.830Z,99465.44
2024-02-29T06:31:57.258Z,99475.88
2024-02-29T06:34:23.794Z,99468.91
2024-02-29T06:36:50.298Z,99471.78
2024-02-29T06:39:16.719Z,99466.75
2024-02-29T06:41:43.222Z,99479.13
2024-02-29T06:44:09.654Z,99484.78
2024-02-29T06:46:36.069Z,99477.72
2024-02-29T06:49:02.560Z,99475.88
2024-02-29T06:51:28.987Z,99478.69
2024-02-29T06:53:55.424Z,99477.59
2024-02-29T06:56:21.851Z,99476.84
2024-02-29T06:58:48.256Z,99477.31
2024-02-29T07:01:14.757Z,99471.78
2024-02-29T07:03:41.238Z,99467.13
2024-02-29T07:06:07.686Z,99462.44
2024-02-29T07:08:34.121Z,99458.50
2024-02-29T07:11:02.392Z,99460.94
2024-02-29T07:13:29.314Z,99470.50
2024-02-29T07:15:55.849Z,99467.75
2024-02-29T07:18:22.375Z,99466.63
2024-02-29T07:20:48.797Z,99471.78
2024-02-29T07:23:15.226Z,99464.28
2024-02-29T07:25:41.724Z,99472.25
2024-02-29T07:28:08.177Z,99469.91
2024-02-29T07:30:34.698Z,99458.88
2024-02-29T07:33:01.247Z,99464.06
2024-02-29T07:35:27.670Z,99459.31
2024-02-29T07:37:55.047Z,99462.09
2024-02-29T07:40:21.766Z,99455.41
2024-02-29T07:42:48.327Z,99446.72
2024-02-29T07:45:17.283Z,99447.97
2024-02-29T07:47:44.943Z,99439.66
2024-02-29T07:50:11.388Z,99439.28
2024-02-29T07:52:37.857Z,99440.50
2024-02-29T07:55:04.357Z,99434.53
2024-02-29T07:57:30.771Z,99435.72
2024-02-29T07:59:57.269Z,99429.00
2024-02-29T08:02:24.867Z,99422.69
2024-02-29T08:04:51.464Z,99422.69
2024-02-29T08:07:18.001Z,99419.91
2024-02-29T08:09:44.488Z,99427.06
2024-02-29T08:12:10.942Z,99432.63
2024-02-29T08:14:37.377Z,99431.31
2024-02-29T08:17:03.838Z,99433.28
2024-02-29T08:19:30.221Z,99430.13
2024-02-29T08:21:56.680Z,99434.78
2024-02-29T08:24:23.124Z,99428.44
2024-02-29T08:26:49.538Z,99424.44
2024-02-29T08:29:16.009Z,99421.22
2024-02-29T08:31:42.592Z,99420.78
2024-02-29T08:34:09.265Z,99426.69
2024-02-29T08:36:35.817Z,99422.25
2024-02-29T08:39:02.301Z,99429.97
2024-02-29T08:41:28.701Z,99425.94
2024-02-29T08:43:55.160Z,99424.16
2024-02-29T08:46:21.653Z,99425.69
2024-02-29T08:48:48.228Z,99423.31
2024-02-29T08:51:14.776Z,99424.00
2024-02-29T08:53:41.204Z,99425.53
2024-02-29T08:56:07.633Z,99421.09
2024-02-29T08:58:34.109Z,99422.94
2024-02-29T09:01:01.080Z,99422.81
2024-02-29T09:03:27.631Z,99410.47
2024-02-29T09:05:54.108Z,99409.97
2024-02-29T09:08:22.789Z,99403.50
2024-02-29T09:10:49.489Z,99401.84
2024-02-29T09:13:26.206Z,99400.50
2024-02-29T09:15:57.408Z,99398.41
2024-02-29T09:18:23.899Z,99396.25
2024-02-29T09:20:50.330Z,99388.16
2024-02-29T09:23:16.726Z,99386.44
2024-02-29T09:25:43.306Z,99382.59
2024-02-29T09:28:09.765Z,99391.22
2024-02-29T09:30:36.259Z,99386.44
2024-02-29T09:33:02.766Z,99387.66
2024-02-29T09:35:29.227Z,99383.78
2024-02-29T09:37:55.669Z,99391.53
2024-02-29T09:40:22.244Z,99384.34
2024-02-29T09:42:48.835Z,99381.09
2024-02-29T09:45:15.282Z,99377.03
2024-02-29T09:47:41.742Z,99372.63
2024-02-29T09:50:08.168Z,99377.94
2024-02-29T09:52:34.579Z,99369.97
2024-02-29T09:55:01.087Z,99364.31
2024-02-29T09:57:27.595Z,99368.66
2024-02-29T09:59:54.048Z,99369.91
2024-02-29T10:02:20.471Z,99376.38
2024-02-29T10:04:46.917Z,99370.81
2024-02-29T10:07:13.378Z,99370.34
2024-02-29T10:09:39.881Z,99368.31
2024-02-29T10:12:06.453Z,99369.03
2024-02-29T10:14:32.939Z,99372.50
2024-02-29T10:16:59.374Z,99368.78
2024-02-29T10:19:25.941Z,99377.31
2024-02-29T10:21:52.450Z,99367.44
2024-02-29T10:24:18.953Z,99353.69
2024-02-29T10:26:45.380Z,99354.84
2024-02-29T10:29:11.848Z,99353.97
2024-02-29T10:31:39.756Z,99347.28
2024-02-29T10:34:06.553Z,99346.53
2024-02-29T10:36:33.012Z,99340.78
2024-02-29T10:38:59.445Z,99337.19
2024-02-29T10:41:25.851Z,99332.16
2024-02-29T10:43:52.293Z,99335.44
2024-02-29T10:46:18.781Z,99325.53
2024-02-29T10:48:45.253Z,99330.78
2024-02-29T10:51:11.763Z,99327.00
2024-02-29T10:53:38.191Z,99318.13
2024-02-29T10:56:04.601Z,99324.19
2024-02-29T10:58:31.030Z,99328.69
2024-02-29T11:00:57.574Z,99310.44
2024-02-29T11:03:24.025Z,99317.34
2024-02-29T11:05:50.507Z,99310.09
2024-02-29T11:08:16.931Z,99308.38
2024-02-29T11:10:43.453Z,99310.19
2024-02-29T11:13:09.970Z,99309.66
2024-02-29T11:15:37.014Z,99306.72
2024-02-29T11:18:03.727Z,99303.50
2024-02-29T11:20:32.139Z,99295.91
2024-02-29T11:23:00.950Z,99293.06
2024-02-29T11:25:29.816Z,99288.59
2024-02-29T11:27:56.310Z,99282.84
2024-02-29T11:30:22.804Z,99283.78
2024-02-29T11:32:49.270Z,99279.66
2024-02-29T11:35:15.769Z,99278.28
2024-02-29T11:37:42.206Z,99278.84
2024-02-29T11:40:08.782Z,99271.13
2024-02-29T11:42:35.301Z,99273.69
2024-02-29T11:45:01.735Z,99269.50
2024-02-29T11:47:28.250Z,99275.59
2024-02-29T11:49:54.664Z,99274.19
2024-02-29T11:52:21.221Z,99275.09
2024-02-29T11:54:47.742Z,99270.84
2024-02-29T11:57:14.170Z,99264.72
2024-02-29T11:59:40.637Z,99255.00
2024-02-29T12:02:07.184Z,99251.81
2024-02-29T12:04:35.059Z,99250.66
2024-02-29T12:07:01.732Z,99247.16
2024-02-29T12:09:28.187Z,99238.94
2024-02-29T12:11:54.655Z,99240.63
2024-02-29T12:14:21.123Z,99227.28
2024-02-29T12:16:47.596Z,99228.09
2024-02-29T12:19:14.147Z,99225.72
2024-02-29T12:21:40.662Z,99219.47
2024-02-29T12:24:07.129Z,99219.88
2024-02-29T12:26:33.577Z,99213.63
2024-02-29T12:29:00.032Z,99209.31
2024-02-29T12:31:26.534Z,99228.28
2024-02-29T12:33:52.995Z,99203.53
2024-02-29T12:36:19.615Z,99198.69
2024-02-29T12:38:46.096Z,99194.03
2024-02-29T12:41:12.514Z,99189.00
2024-02-29T12:43:38.975Z,99184.31
2024-02-29T12:46:05.500Z,99182.75
2024-02-29T12:48:32.031Z,99177.25
2024-02-29T12:50:58.514Z,99174.91
2024-02-29T12:53:24.957Z,99178.09
2024-02-29T12:55:51.395Z,99172.97
2024-02-29T12:58:17.828Z,99166.69
2024-02-29T13:00:44.801Z,99164.72
2024-02-29T13:03:11.792Z,99157.66
2024-02-29T13:05:38.294Z,99156.97
2024-02-29T13:08:04.725Z,99158.66
2024-02-29T13:10:31.243Z,99162.34
2024-02-29T13:13:03.948Z,99157.72
2024-02-29T13:15:36.271Z,99154.69
2024-02-29T13:18:02.753Z,99143.00
2024-02-29T13:20:29.189Z,99147.44
2024-02-29T13:22:55.655Z,99144.38
2024-02-29T13:25:22.190Z,99145.69
2024-02-29T13:27:48.771Z,99146.16
2024-02-29T13:30:15.221Z,99138.72
2024-02-29T13:32:41.663Z,99137.69
2024-02-29T13:35:08.084Z,99134.16
2024-02-29T13:37:34.548Z,99130.63
2024-02-29T13:40:01.026Z,99123.56
2024-02-29T13:42:27.487Z,99126.75
2024-02-29T13:44:53.899Z,99118.88
2024-02-29T13:47:20.331Z,99125.19
2024-02-29T13:49:46.750Z,99124.00
2024-02-29T13:52:13.256Z,99124.00
2024-02-29T13:54:39.731Z,99117.28
2024-02-29T13:57:06.193Z,99111.75
2024-02-29T13:59:32.645Z,99114.53
2024-02-29T14:01:59.175Z,99113.38
2024-02-29T14:04:25.735Z,99110.59
2024-02-29T14:06:52.275Z,99104.66
2024-02-29T14:09:18.735Z,99108.22
2024-02-29T14:11:45.172Z,99101.53
2024-02-29T14:14:11.623Z,99095.63
2024-02-29T14:16:38.083Z,99091.69
2024-02-29T14:19:04.601Z,99090.50
2024-02-29T14:21:31.149Z,99088.53
2024-02-29T14:23:57.560Z,99088.16
2024-02-29T14:26:23.956Z,99088.56
2024-02-29T14:28:50.403Z,99083.84
2024-02-29T14:31:16.894Z,99081.88
2024-02-29T14:33:43.365Z,99077.13
2024-02-29T14:36:09.815Z,99068.84
2024-02-29T14:38:36.236Z,99068.44
2024-02-29T14:41:02.660Z,99064.88
2024-02-29T14:43:29.112Z,99065.31
2024-02-29T14:45:55.596Z,99061.34
2024-02-29T14:48:22.082Z,99063.31
2024-02-29T14:50:48.513Z,99066.09
2024-02-29T14:53:14.942Z,99059.78
2024-02-29T14:55:41.326Z,99059.78
2024-02-29T14:58:07.779Z,99049.50
2024-02-29T15:00:34.192Z,99051.47
2024-02-29T15:03:00.599Z,99042.38
2024-02-29T15:05:27.050Z,99052.66
2024-02-29T15:07:53.479Z,99046.72
2024-02-29T15:10:19.951Z,99051.03
2024-02-29T15:12:46.444Z,99043.13
2024-02-29T15:15:12.877Z,99037.97
2024-02-29T15:17:39.379Z,99041.16
2024-02-29T15:20:05.888Z,99036.41
2024-02-29T15:22:32.295Z,99039.19
2024-02-29T15:24:58.721Z,99041.16
2024-02-29T15:27:25.273Z,99043.34
2024-02-29T15:29:51.831Z,99038.81
2024-02-29T15:32:18.258Z,99037.72
2024-02-29T15:34:47.401Z,99030.63
2024-02-29T15:37:14.454Z,99035.91
2024-02-29T15:39:40.952Z,99027.63
2024-02-29T15:42:07.438Z,99025.97
2024-02-29T15:44:33.838Z,99025.91
2024-02-29T15:47:00.257Z,99021.41
2024-02-29T15:49:26.805Z,99027.50
2024-02-29T15:51:53.353Z,99032.00
2024-02-29T15:54:19.815Z,99027.03
2024-02-29T15:56:46.304Z,99019.69
2024-02-29T15:59:12.748Z,99013.50
2024-02-29T16:01:39.253Z,99020.31
2024-02-29T16:04:05.755Z,99020.00
2024-02-29T16:06:32.255Z,99012.63
2024-02-29T16:08:58.657Z,99009.09
2024-02-29T16:11:25.111Z,99007.94
2024-02-29T16:13:51.559Z,99006.38
2024-02-29T16:16:18.099Z,99005.63
2024-02-29T16:18:44.669Z,99006.44
2024-02-29T16:21:11.098Z,99007.22
2024-02-29T16:23:37.530Z,99010.38
2024-02-29T16:26:03.974Z,99012.34
2024-02-29T16:28:30.473Z,99015.13
2024-02-29T16:30:56.986Z,99013.53
2024-02-29T16:33:23.412Z,99001.28
2024-02-29T16:35:49.851Z,99006.00
2024-02-29T16:38:16.283Z,99002.47
2024-02-29T16:40:42.704Z,99009.97
2024-02-29T16:43:09.179Z,99005.16
2024-02-29T16:45:35.591Z,99007.94
2024-02-29T16:48:02.060Z,99004.78
2024-02-29T16:50:28.607Z,99001.22
2024-02-29T16:52:55.031Z,98998.03
2024-02-29T16:55:21.511Z,98996.03
2024-02-29T16:57:47.982Z,98998.38
2024-02-29T17:00:14.412Z,99007.84
2024-02-29T17:02:40.856Z,99004.66
2024-02-29T17:05:07.334Z,99007.00
2024-02-29T17:07:33.769Z,99005.81
2024-02-29T17:10:00.493Z,99002.63
2024-02-29T17:12:27.072Z,99004.19
2024-02-29T17:14:53.464Z,99002.97
2024-02-29T17:17:20.621Z,98997.41
2024-02-29T17:19:47.048Z,99000.53
2024-02-29T17:22:13.524Z,99004.06
2024-02-29T17:24:40.011Z,98999.31
2024-02-29T17:27:06.417Z,99001.66
2024-02-29T17:29:32.863Z,98996.91
2024-02-29T17:31:59.304Z,98994.91
2024-02-29T17:34:25.815Z,98992.91
2024-02-29T17:36:52.411Z,98995.97
2024-02-29T17:39:18.881Z,98997.94
2024-02-29T17:41:45.271Z,99001.44
2024-02-29T17:44:11.718Z,98997.47
2024-02-29T17:46:38.125Z,98991.91
2024-02-29T17:49:04.595Z,98988.72
2024-02-29T17:51:31.078Z,98987.88
2024-02-29T17:53:57.489Z,98974.81
2024-02-29T17:56:23.916Z,98970.06
2024-02-29T17:58:50.500Z,98971.63
2024-02-29T18:01:17.058Z,98973.53
2024-02-29T18:03:43.562Z,98966.81
2024-02-29T18:06:09.958Z,98969.53
2024-02-29T18:08:36.373Z,98962.78
2024-02-29T18:11:02.855Z,98963.53
2024-02-29T18:13:29.327Z,98956.00
2024-02-29T18:15:55.832Z,98954.00
2024-02-29T18:18:22.261Z,98957.53
2024-02-29T18:20:48.674Z,98954.72
2024-02-29T18:23:15.115Z,98947.97
2024-02-29T18:25:41.650Z,98936.53
2024-02-29T18:28:08.125Z,98934.94
2024-02-29T18:30:34.589Z,98927.84
2024-02-29T18:33:01.072Z,98925.50
2024-02-29T18:35:27.498Z,98938.53
2024-02-29T18:37:53.936Z,98937.78
2024-02-29T18:40:20.402Z,98943.38
2024-02-29T18:42:46.836Z,98946.16
2024-02-29T18:45:13.270Z,98942.25
2024-02-29T18:47:39.831Z,98932.06
2024-02-29T18:50:06.325Z,98934.47
2024-02-29T18:52:32.833Z,98925.88
2024-02-29T18:54:59.302Z,98927.50
2024-02-29T18:57:25.777Z,98915.72
2024-02-29T18:59:52.204Z,98913.34
2024-02-29T19:02:18.620Z,98916.94
2024-02-29T19:04:45.108Z,98917.28
2024-02-29T19:07:11.620Z,98915.72
2024-02-29T19:09:38.118Z,98918.06
2024-02-29T19:12:04.560Z,98912.94
2024-02-29T19:14:30.987Z,98912.50
2024-02-29T19:16:57.394Z,98908.53
2024-02-29T19:19:24.049Z,98911.69
2024-02-29T19:21:50.573Z,98904.94
2024-02-29T19:24:16.998Z,98909.25
2024-02-29T19:26:43.437Z,98906.84
2024-02-29T19:29:09.884Z,98905.28
2024-02-29T19:31:36.287Z,98904.06
2024-02-29T19:34:02.762Z,98903.63
2024-02-29T19:36:29.190Z,98899.69
2024-02-29T19:38:55.596Z,98899.28
2024-02-29T19:41:23.199Z,98889.78
2024-02-29T19:43:49.587Z,98892.91
2024-02-29T19:46:16.256Z,98900.78
2024-02-29T19:48:42.781Z,98889.31
2024-02-29T19:51:09.210Z,98894.03
2024-02-29T19:53:35.642Z,98887.31
2024-02-29T19:56:02.070Z,98893.19
2024-02-29T19:58:28.586Z,98891.63
2024-02-29T20:00:55.138Z,98891.19
2024-02-29T20:03:21.633Z,98877.78
2024-02-29T20:05:48.023Z,98889.19
2024-02-29T20:08:14.450Z,98883.66
2024-02-29T20:10:40.890Z,98885.28
2024-02-29T20:13:07.352Z,98879.38
2024-02-29T20:15:33.834Z,98877.47
2024-02-29T20:18:00.344Z,98872.75
2024-02-29T20:20:26.775Z,98875.19
2024-02-29T20:22:53.203Z,98878.41
2024-02-29T20:25:19.652Z,98869.78
2024-02-29T20:27:46.088Z,98874.97
2024-02-29T20:30:12.539Z,98875.41
2024-02-29T20:32:38.971Z,98877.84
2024-02-29T20:35:05.413Z,98871.97
2024-02-29T20:37:31.936Z,98866.53
2024-02-29T20:39:58.409Z,98862.59
2024-02-29T20:42:24.849Z,98858.72
2024-02-29T20:44:51.251Z,98855.59
2024-02-29T20:47:18.011Z,98854.41
2024-02-29T20:49:44.453Z,98859.13
2024-02-29T20:52:12.412Z,98852.84
2024-02-29T20:54:39.978Z,98842.94
2024-02-29T20:57:06.394Z,98848.06
2024-02-29T20:59:32.813Z,98844.09
2024-02-29T21:01:59.481Z,98840.53
2024-02-29T21:04:26.143Z,98837.75
2024-02-29T21:06:52.615Z,98838.91
2024-02-29T21:09:19.048Z,98840.47
2024-02-29T21:11:45.474Z,98834.94
2024-02-29T21:14:11.917Z,98825.03
2024-02-29T21:16:38.361Z,98831.75
2024-02-29T21:19:04.860Z,98824.66
2024-02-29T21:21:31.373Z,98819.09
2024-02-29T21:23:57.868Z,98821.03
2024-02-29T21:26:24.309Z,98817.09
2024-02-29T21:28:50.747Z,98793.69
2024-02-29T21:31:17.176Z,98809.16
2024-02-29T21:33:43.686Z,98807.56
2024-02-29T21:36:10.139Z,98801.22
2024-02-29T21:38:36.572Z,98800.03
2024-02-29T21:41:03.038Z,98802.00
2024-02-29T21:43:29.474Z,98795.25
2024-02-29T21:45:55.975Z,98794.09
2024-02-29T21:48:22.440Z,98791.34
2024-02-29T21:50:48.868Z,98786.22
2024-02-29T21:53:15.339Z,98787.84
2024-02-29T21:55:41.780Z,98787.84
2024-02-29T21:58:08.222Z,98779.16
2024-02-29T22:00:34.680Z,98779.16
2024-02-29T22:03:01.115Z,98776.41
2024-02-29T22:05:27.500Z,98780.72
2024-02-29T22:07:53.948Z,98776.03
2024-02-29T22:10:20.421Z,98775.22
2024-02-29T22:12:46.884Z,98778.78
2024-02-29T22:15:13.412Z,98776.81
2024-02-29T22:17:39.917Z,98764.22
2024-02-29T22:20:06.335Z,98758.72
2024-02-29T22:22:32.814Z,98760.66
2024-02-29T22:24:59.326Z,98754.34
2024-02-29T22:27:25.795Z,98749.25
2024-02-29T22:29:52.253Z,98744.91
2024-02-29T22:32:18.670Z,98740.97
2024-02-29T22:34:45.119Z,98749.25
2024-02-29T22:37:11.563Z,98739.00
2024-02-29T22:39:38.035Z,98744.16
2024-02-29T22:42:04.465Z,98735.88
2024-02-29T22:44:30.936Z,98728.00
2024-02-29T22:46:57.383Z,98727.22
2024-02-29T22:49:23.932Z,98730.75
2024-02-29T22:51:50.497Z,98726.84
2024-02-29T22:54:16.944Z,98729.59
2024-02-29T22:56:43.370Z,98721.31
2024-02-29T22:59:09.793Z,98720.13
2024-02-29T23:01:36.387Z,98714.63
2024-02-29T23:04:02.944Z,98710.66
2024-02-29T23:06:29.376Z,98702.78
2024-02-29T23:08:55.836Z,98707.13
2024-02-29T23:11:22.374Z,98696.09
2024-02-29T23:13:48.804Z,98700.44
2024-02-29T23:16:15.380Z,98698.47
2024-02-29T23:18:41.856Z,98703.22
2024-02-29T23:21:08.295Z,98693.31
2024-02-29T23:23:34.720Z,98699.63
2024-02-29T23:26:01.189Z,98702.41
2024-02-29T23:28:27.670Z,98704.38
2024-02-29T23:30:54.110Z,98703.22
2024-02-29T23:33:20.843Z,98702.41
2024-02-29T23:35:47.334Z,98712.28
2024-02-29T23:38:13.775Z,98696.88
2024-02-29T23:40:40.284Z,98700.44
2024-02-29T23:43:06.885Z,98702.41
2024-02-29T23:45:33.297Z,98704.00
2024-02-29T23:47:59.787Z,98704.00
2024-02-29T23:50:26.257Z,98702.81
2024-02-29T23:52:52.675Z,98704.00
2024-02-29T23:55:19.248Z,98695.72
2024-02-29T23:57:45.746Z,98685.06
